^^
Meteo Knjazevac Station Historical Data
Daily Summary for May 25, 2022 Units:  Both    English   Metric
Daily Weekly Monthly Yearly Custom
  High: Low: Average:
Temperature: 69.4 °F /  20.8 °C 51.8 °F /  11 °C 57.3 °F /  14.1 °C
Dew Point: 61.7 °F /  16.5 °C 49.1 °F /  9.5 °C 53.7 °F /  12.1 °C
Humidity: 94% 75% 88%
Wind Speed: 5mph /  8km/h - 0.8mph /  1.3km/h
Wind Gust: 10mph /  16.1km/h - -
Wind- - South
Pressure: 30.09 in /  1018.8 hPa 30.00 in /  1015.8 hPa -
Precipitation: 0.00 in /  0 mm    
Historical Graphs
 
 
Tabular Data for May 25, 2022
Time Temperature Dew Point Pressure Wind Wind Speed Wind Gust Humidity Rainfall Rate (Hourly) solar Conditions
00:00 60.4 °F /  15.8 °C 55.3 °F /  12.9 °C 30.00in /  1015.8hPa Calm   3mph /  4.8km/h 83% 0.00in /  0mm 0 W/m2
00:10 60.1 °F /  15.6 °C 54.9 °F /  12.7 °C 30.00in /  1015.8hPa Calm   1mph /  1.6km/h 83% 0.00in /  0mm 0 W/m2
00:20 59.7 °F /  15.4 °C 54.5 °F /  12.5 °C 30.00in /  1015.8hPa Calm   2mph /  3.2km/h 83% 0.00in /  0mm 0 W/m2
00:30 59.2 °F /  15.1 °C 54.1 °F /  12.3 °C 30.00in /  1015.8hPa Calm   2mph /  3.2km/h 83% 0.00in /  0mm 0 W/m2
00:40 59 °F /  15 °C 54.2 °F /  12.3 °C 30.00in /  1015.8hPa Calm   1mph /  1.6km/h 84% 0.00in /  0mm 0 W/m2
00:50 58.6 °F /  14.8 °C 53.8 °F /  12.1 °C 30.01in /  1016.1hPa Calm   2mph /  3.2km/h 84% 0.00in /  0mm 0 W/m2
01:00 58.3 °F /  14.6 °C 53.5 °F /  11.9 °C 30.01in /  1016.1hPa Calm     84% 0.00in /  0mm 0 W/m2
01:10 57.9 °F /  14.4 °C 53.1 °F /  11.7 °C 30.01in /  1016.1hPa Calm   1mph /  1.6km/h 84% 0.00in /  0mm 0 W/m2
01:20 57.4 °F /  14.1 °C 53 °F /  11.7 °C 30.01in /  1016.1hPa Calm   2mph /  3.2km/h 85% 0.00in /  0mm 0 W/m2
01:30 57.1 °F /  13.9 °C 52.6 °F /  11.4 °C 30.01in /  1016.1hPa Calm   2mph /  3.2km/h 85% 0.00in /  0mm 0 W/m2
01:40 56.8 °F /  13.8 °C 52.7 °F /  11.5 °C 30.01in /  1016.1hPa NW 1mph /  1.6km/h 2mph /  3.2km/h 86% 0.00in /  0mm 0 W/m2
01:50 56.7 °F /  13.7 °C 52.5 °F /  11.4 °C 30.01in /  1016.1hPa West 1mph /  1.6km/h 2mph /  3.2km/h 86% 0.00in /  0mm 0 W/m2
02:00 56.3 °F /  13.5 °C 52.8 °F /  11.6 °C 30.01in /  1016.1hPa WNW 1mph /  1.6km/h 3mph /  4.8km/h 88% 0.00in /  0mm 0 W/m2
02:10 56.1 °F /  13.4 °C 52.6 °F /  11.4 °C 30.01in /  1016.1hPa Calm   2mph /  3.2km/h 88% 0.00in /  0mm 0 W/m2
02:20 55.8 °F /  13.2 °C 51.6 °F /  10.9 °C 30.01in /  1016.1hPa Calm   2mph /  3.2km/h 86% 0.00in /  0mm 0 W/m2
02:30 55.6 °F /  13.1 °C 52.1 °F /  11.2 °C 30.02in /  1016.5hPa Calm   1mph /  1.6km/h 88% 0.00in /  0mm 0 W/m2
02:40 55.4 °F /  13 °C 52.2 °F /  11.2 °C 30.02in /  1016.5hPa Calm   2mph /  3.2km/h 89% 0.00in /  0mm 0 W/m2
02:50 55 °F /  12.8 °C 51.9 °F /  11.1 °C 30.02in /  1016.5hPa West 1mph /  1.6km/h 3mph /  4.8km/h 89% 0.00in /  0mm 0 W/m2
03:00 54.9 °F /  12.7 °C 52 °F /  11.1 °C 30.03in /  1016.8hPa WNW 1mph /  1.6km/h 2mph /  3.2km/h 90% 0.00in /  0mm 0 W/m2
03:20 54.7 °F /  12.6 °C 51.8 °F /  11 °C 30.03in /  1016.8hPa Calm   2mph /  3.2km/h 90% 0.00in /  0mm 0 W/m2
03:30 54.5 °F /  12.5 °C 51.6 °F /  10.9 °C 30.03in /  1016.8hPa NNW 1mph /  1.6km/h 2mph /  3.2km/h 90% 0.00in /  0mm 0 W/m2
03:40 54.3 °F /  12.4 °C 51.7 °F /  10.9 °C 30.04in /  1017.2hPa Calm   2mph /  3.2km/h 91% 0.00in /  0mm 0 W/m2
03:50 54.2 °F /  12.3 °C 51.6 °F /  10.9 °C 30.04in /  1017.2hPa Calm   2mph /  3.2km/h 91% 0.00in /  0mm 0 W/m2
04:00 54 °F /  12.2 °C 51.4 °F /  10.8 °C 30.04in /  1017.2hPa Calm   2mph /  3.2km/h 91% 0.00in /  0mm 0 W/m2
04:10 54 °F /  12.2 °C 51.4 °F /  10.8 °C 30.04in /  1017.2hPa Calm   2mph /  3.2km/h 91% 0.00in /  0mm 0 W/m2
04:20 53.8 °F /  12.1 °C 51.2 °F /  10.7 °C 30.04in /  1017.2hPa Calm   2mph /  3.2km/h 91% 0.00in /  0mm 0 W/m2
04:30 53.6 °F /  12 °C 51.6 °F /  10.9 °C 30.04in /  1017.2hPa Calm   2mph /  3.2km/h 93% 0.00in /  0mm 0 W/m2
04:40 53.4 °F /  11.9 °C 50.9 °F /  10.5 °C 30.05in /  1017.5hPa Calm   2mph /  3.2km/h 91% 0.00in /  0mm 0 W/m2
04:50 53.1 °F /  11.7 °C 50.2 °F /  10.1 °C 30.05in /  1017.5hPa Calm   1mph /  1.6km/h 90% 0.00in /  0mm 0 W/m2
05:00 52.7 °F /  11.5 °C 49.8 °F /  9.9 °C 30.05in /  1017.5hPa Calm     90% 0.00in /  0mm 3 W/m2
05:10 52.4 °F /  11.3 °C 49.5 °F /  9.7 °C 30.05in /  1017.5hPa Calm     90% 0.00in /  0mm 8 W/m2
05:20 52.3 °F /  11.3 °C 49.5 °F /  9.7 °C 30.05in /  1017.5hPa Calm   1mph /  1.6km/h 90% 0.00in /  0mm 13 W/m2
05:30 52.2 °F /  11.2 °C 49.6 °F /  9.8 °C 30.05in /  1017.5hPa Calm   2mph /  3.2km/h 91% 0.00in /  0mm 21 W/m2
05:40 52 °F /  11.1 °C 49.1 °F /  9.5 °C 30.06in /  1017.8hPa NNW 1mph /  1.6km/h 2mph /  3.2km/h 90% 0.00in /  0mm 31 W/m2
05:50 51.8 °F /  11 °C 49.3 °F /  9.6 °C 30.06in /  1017.8hPa NW 1mph /  1.6km/h 3mph /  4.8km/h 91% 0.00in /  0mm 42 W/m2
06:00 52 °F /  11.1 °C 50 °F /  10 °C 30.06in /  1017.8hPa Calm   2mph /  3.2km/h 93% 0.00in /  0mm 57 W/m2
06:10 52.3 °F /  11.3 °C 50.4 °F /  10.2 °C 30.06in /  1017.8hPa NW 1mph /  1.6km/h 2mph /  3.2km/h 93% 0.00in /  0mm 93 W/m2
06:20 52.3 °F /  11.3 °C 49.8 °F /  9.9 °C 30.06in /  1017.8hPa Calm   1mph /  1.6km/h 91% 0.00in /  0mm 108 W/m2
06:30 52.5 °F /  11.4 °C 50 °F /  10 °C 30.06in /  1017.8hPa Calm   1mph /  1.6km/h 91% 0.00in /  0mm 91 W/m2
06:40 52.9 °F /  11.6 °C 50.9 °F /  10.5 °C 30.07in /  1018.2hPa Calm   2mph /  3.2km/h 93% 0.00in /  0mm 169 W/m2
06:50 53.4 °F /  11.9 °C 51.4 °F /  10.8 °C 30.06in /  1017.8hPa Calm   2mph /  3.2km/h 93% 0.00in /  0mm 76 W/m2
07:00 54 °F /  12.2 °C 52.3 °F /  11.3 °C 30.07in /  1018.2hPa Calm   3mph /  4.8km/h 94% 0.00in /  0mm 198 W/m2
07:10 54.7 °F /  12.6 °C 53 °F /  11.7 °C 30.06in /  1017.8hPa North 1mph /  1.6km/h 3mph /  4.8km/h 94% 0.00in /  0mm 216 W/m2
07:20 55.2 °F /  12.9 °C 53.5 °F /  11.9 °C 30.06in /  1017.8hPa SW 2mph /  3.2km/h 3mph /  4.8km/h 94% 0.00in /  0mm 161 W/m2
07:30 55.8 °F /  13.2 °C 54.1 °F /  12.3 °C 30.07in /  1018.2hPa Calm   3mph /  4.8km/h 94% 0.00in /  0mm 346 W/m2
07:40 56.8 °F /  13.8 °C 55.1 °F /  12.8 °C 30.07in /  1018.2hPa NW 2mph /  3.2km/h 5mph /  8km/h 94% 0.00in /  0mm 237 W/m2
07:50 57.9 °F /  14.4 °C 55.9 °F /  13.3 °C 30.08in /  1018.5hPa NNE 2mph /  3.2km/h 6mph /  9.7km/h 93% 0.00in /  0mm 151 W/m2
08:00 58.6 °F /  14.8 °C 56 °F /  13.3 °C 30.08in /  1018.5hPa North 2mph /  3.2km/h 7mph /  11.3km/h 91% 0.00in /  0mm 423 W/m2
08:10 59.5 °F /  15.3 °C 56.6 °F /  13.7 °C 30.08in /  1018.5hPa North 1mph /  1.6km/h 6mph /  9.7km/h 90% 0.00in /  0mm 327 W/m2
08:20 60.3 °F /  15.7 °C 57 °F /  13.9 °C 30.09in /  1018.8hPa NW 1mph /  1.6km/h 4mph /  6.4km/h 89% 0.00in /  0mm 250 W/m2
08:30 61 °F /  16.1 °C 57.4 °F /  14.1 °C 30.07in /  1018.2hPa NE 2mph /  3.2km/h 7mph /  11.3km/h 88% 0.00in /  0mm 193 W/m2
08:40 61.3 °F /  16.3 °C 57.1 °F /  13.9 °C 30.07in /  1018.2hPa NNE 2mph /  3.2km/h 7mph /  11.3km/h 86% 0.00in /  0mm 220 W/m2
08:50 61.5 °F /  16.4 °C 57.3 °F /  14.1 °C 30.07in /  1018.2hPa North 5mph /  8km/h 7mph /  11.3km/h 86% 0.00in /  0mm 214 W/m2
09:00 62.4 °F /  16.9 °C 58.2 °F /  14.6 °C 30.07in /  1018.2hPa SW 2mph /  3.2km/h 5mph /  8km/h 86% 0.00in /  0mm 642 W/m2
09:10 63.8 °F /  17.7 °C 58.6 °F /  14.8 °C 30.07in /  1018.2hPa SW 2mph /  3.2km/h 5mph /  8km/h 83% 0.00in /  0mm 322 W/m2
09:20 64.9 °F /  18.3 °C 58.9 °F /  14.9 °C 30.08in /  1018.5hPa SSW 2mph /  3.2km/h 6mph /  9.7km/h 81% 0.00in /  0mm 665 W/m2
09:30 66 °F /  18.9 °C 59.6 °F /  15.3 °C 30.08in /  1018.5hPa SW 2mph /  3.2km/h 6mph /  9.7km/h 80% 0.00in /  0mm 631 W/m2
09:40 66.9 °F /  19.4 °C 60.2 °F /  15.7 °C 30.08in /  1018.5hPa ENE 2mph /  3.2km/h 7mph /  11.3km/h 79% 0.00in /  0mm 719 W/m2
09:50 68.2 °F /  20.1 °C 61.1 °F /  16.2 °C 30.08in /  1018.5hPa NE 3mph /  4.8km/h 9mph /  14.5km/h 78% 0.00in /  0mm 751 W/m2
10:00 69.2 °F /  20.7 °C 61.7 °F /  16.5 °C 30.07in /  1018.2hPa NNE 2mph /  3.2km/h 10mph /  16.1km/h 77% 0.00in /  0mm 467 W/m2
10:10 69.1 °F /  20.6 °C 60.8 °F /  16 °C 30.08in /  1018.5hPa NE 3mph /  4.8km/h 8mph /  12.9km/h 75% 0.00in /  0mm 303 W/m2
10:20 69.4 °F /  20.8 °C 61.1 °F /  16.2 °C 30.08in /  1018.5hPa NNE 3mph /  4.8km/h 7mph /  11.3km/h 75% 0.00in /  0mm 534 W/m2
Knjazevac, Serbia
Compliments of Weather Underground - 2 mb